Time;durP1;ratioP1;P1;durP2;ratioP2;P2;SDS_P1;SDS_P2;PMS_P1;PMS_P2;Temp;Humidity;BMP_temperature;BMP_pressure;BME280_temperature;BME280_humidity;BME280_pressure;Samples;Min_cycle;Max_cycle;Signal;HPM_P1;HPM_P2
2022/09/15 07:43:22;;;;;;;;;;;;;;;7.87;100.00;98771.44;6277672;22;19922;-84
2022/09/15 07:45:47;;;;;;;;;;;;;;;7.87;100.00;98772.28;6277296;22;19943;-87
2022/09/15 07:48:12;;;;;;;;;;;;;;;7.90;100.00;98777.41;6277197;22;19915;-86
2022/09/15 07:50:37;;;;;;;;;;;;;;;7.90;100.00;98776.56;6277640;22;19918;-87
2022/09/15 07:53:05;;;;;;;;;;;;;;;7.93;100.00;98784.31;6277329;22;19922;-87
2022/09/15 07:55:31;;;;;;;;;;;;;;;7.90;100.00;98795.03;6248173;22;19942;-87
2022/09/15 07:57:58;;;;;;;;;;;;;;;7.91;100.00;98802.84;6250270;22;20239;-86
2022/09/15 08:00:23;;;;;;;;;;;;;;;7.91;100.00;98796.72;6250252;22;20599;-87
2022/09/15 08:02:48;;;;;;;;;;;;;;;7.90;100.00;98800.31;6277099;22;19911;-86
2022/09/15 08:05:14;;;;;;;;;;;;;;;7.93;100.00;98802.78;6249940;22;19961;-88
2022/09/15 08:07:39;;;;;;;;;;;;;;;7.93;100.00;98805.41;6277463;22;19911;-87
2022/09/15 08:10:05;;;;;;;;;;;;;;;7.97;100.00;98804.34;6248146;22;19919;-87
2022/09/15 08:12:30;;;;;;;;;;;;;;;7.94;100.00;98801.84;6277225;22;19962;-90
2022/09/15 08:15:00;;;;;;;;;;;;;;;7.92;100.00;98806.34;6249672;22;20659;-87
2022/09/15 08:17:26;;;;;;;;;;;;;;;7.94;100.00;98820.31;6277179;22;19915;-87
2022/09/15 08:19:51;;;;;;;;;;;;;;;7.97;100.00;98821.03;6277348;22;19911;-86
2022/09/15 08:22:21;;;;;;;;;;;;;;;7.94;100.00;98826.44;6276907;22;19985;-87
2022/09/15 08:24:49;;;;;;;;;;;;;;;7.96;100.00;98834.28;6275593;22;19947;-87
2022/09/15 08:27:14;;;;;;;;;;;;;;;7.89;100.00;98833.72;6249951;22;19912;-86
2022/09/15 08:29:39;;;;;;;;;;;;;;;7.93;100.00;98845.84;6276768;22;19918;-87
2022/09/15 08:32:04;;;;;;;;;;;;;;;7.98;100.00;98840.38;6277053;22;19911;-87
2022/09/15 08:34:32;;;;;;;;;;;;;;;7.95;100.00;98843.16;6276734;22;19918;-88
2022/09/15 08:36:57;;;;;;;;;;;;;;;7.97;100.00;98838.66;6276763;22;19911;-87
2022/09/15 08:39:22;;;;;;;;;;;;;;;7.93;100.00;98845.84;6276406;22;19915;-86
2022/09/15 08:41:50;;;;;;;;;;;;;;;7.95;100.00;98845.78;6265891;22;20216;-87
2022/09/15 08:44:30;;;;;;;;;;;;;;;7.92;100.00;98845.94;6307237;22;19915;-86
2022/09/15 08:47:03;;;;;;;;;;;;;;;7.94;100.00;98849.34;6307692;22;20357;-86
2022/09/15 08:49:30;;;;;;;;;;;;;;;7.94;100.00;98849.34;6306300;22;19938;-86
2022/09/15 08:51:58;;;;;;;;;;;;;;;7.95;100.00;98856.34;6307752;22;19915;-86
2022/09/15 08:54:26;;;;;;;;;;;;;;;7.94;100.00;98852.81;6307795;22;19911;-86
2022/09/15 08:56:51;;;;;;;;;;;;;;;7.95;100.00;98869.53;6304385;22;19914;-87
2022/09/15 08:59:18;;;;;;;;;;;;;;;7.96;100.00;98863.31;6307326;22;20212;-86
2022/09/15 09:02:09;;;;;;;;;;;;;;;7.93;100.00;98866.06;6306047;22;20239;-88
2022/09/15 09:05:04;;;;;;;;;;;;;;;7.91;100.00;98878.50;6273290;22;19915;-86
2022/09/15 09:07:32;;;;;;;;;;;;;;;7.98;100.00;98874.66;6273526;22;19915;-86
2022/09/15 09:10:06;;;;;;;;;;;;;;;7.97;100.00;98880.84;6272132;22;19994;-87
2022/09/15 09:12:40;;;;;;;;;;;;;;;7.94;100.00;98883.63;6273382;22;20065;-86
2022/09/15 09:15:15;;;;;;;;;;;;;;;7.97;100.00;98883.50;6273585;22;20268;-86
2022/09/15 09:17:43;;;;;;;;;;;;;;;7.96;100.00;98890.56;6273588;22;19915;-86
2022/09/15 09:20:14;;;;;;;;;;;;;;;7.97;100.00;98889.59;6273555;22;19911;-86
2022/09/15 09:22:42;;;;;;;;;;;;;;;7.94;100.00;98888.91;6247959;22;19911;-86
2022/09/15 09:25:11;;;;;;;;;;;;;;;7.99;100.00;98889.53;6271690;22;20567;-86
2022/09/15 09:27:38;;;;;;;;;;;;;;;7.98;100.00;98885.22;6247888;22;20293;-86
2022/09/15 09:30:22;;;;;;;;;;;;;;;7.96;100.00;98887.91;6302965;22;20402;-86
2022/09/15 09:33:07;;;;;;;;;;;;;;;7.93;100.00;98880.16;6307369;22;19942;-86
2022/09/15 09:35:32;;;;;;;;;;;;;;;7.93;100.00;98884.53;6307135;22;19968;-86
2022/09/15 09:37:58;;;;;;;;;;;;;;;7.92;100.00;98878.44;6305683;22;19911;-86
2022/09/15 09:40:25;;;;;;;;;;;;;;;7.92;100.00;98888.97;6305473;22;19963;-87
2022/09/15 09:42:50;;;;;;;;;;;;;;;7.94;100.00;98883.63;6307838;22;20011;-87
2022/09/15 09:45:17;;;;;;;;;;;;;;;7.84;100.00;98888.47;6305508;22;20503;-86
2022/09/15 09:47:43;;;;;;;;;;;;;;;7.92;100.00;98885.50;6305617;22;20330;-86
2022/09/15 09:50:27;;;;;;;;;;;;;;;7.94;100.00;98881.00;6306802;22;19911;-86
2022/09/15 09:52:52;;;;;;;;;;;;;;;7.93;100.00;98868.72;6307036;22;19921;-86
2022/09/15 09:55:21;;;;;;;;;;;;;;;7.90;100.00;98882.06;6304251;22;20285;-86
2022/09/15 09:57:47;;;;;;;;;;;;;;;7.96;100.00;98876.50;6303590;22;19915;-86
2022/09/15 10:00:38;;;;;;;;;;;;;;;7.95;100.00;98869.53;6306857;22;19919;-86
2022/09/15 10:03:13;;;;;;;;;;;;;;;7.94;100.00;98873.06;6300752;22;19997;-86
2022/09/15 10:05:38;;;;;;;;;;;;;;;7.94;100.00;98866.00;6305123;22;19911;-86
2022/09/15 10:08:04;;;;;;;;;;;;;;;7.98;100.00;98875.50;6306867;22;19918;-86
2022/09/15 10:10:31;;;;;;;;;;;;;;;7.94;100.00;98878.34;6302877;22;19918;-87
2022/09/15 10:12:57;;;;;;;;;;;;;;;7.91;100.00;98875.84;6305018;22;20289;-89
2022/09/15 10:15:23;;;;;;;;;;;;;;;7.90;100.00;98879.44;6306189;22;19911;-88
2022/09/15 10:17:50;;;;;;;;;;;;;;;7.91;100.00;98876.69;6305440;22;19911;-87
2022/09/15 10:20:24;;;;;;;;;;;;;;;7.87;100.00;98877.78;6306736;22;20018;-87
2022/09/15 10:22:50;;;;;;;;;;;;;;;7.91;100.00;98879.34;6306818;22;20219;-87
2022/09/15 10:25:20;;;;;;;;;;;;;;;7.91;100.00;98870.56;6305196;22;19930;-87
2022/09/15 10:28:05;;;;;;;;;;;;;;;7.94;100.00;98867.81;6272075;22;19916;-87
2022/09/15 10:30:30;;;;;;;;;;;;;;;7.92;100.00;98878.44;6272811;22;19997;-88
2022/09/15 10:33:06;;;;;;;;;;;;;;;7.86;100.00;98883.97;6272563;22;19942;-86
2022/09/15 10:35:31;;;;;;;;;;;;;;;7.88;100.00;98886.53;6246276;22;20351;-88
2022/09/15 10:38:07;;;;;;;;;;;;;;;7.88;100.00;98886.53;6271917;22;19973;-87
2022/09/15 10:40:42;;;;;;;;;;;;;;;7.84;100.00;98888.47;6270767;22;19994;-86
2022/09/15 10:43:17;;;;;;;;;;;;;;;7.86;100.00;98888.41;6246480;22;20317;-87
2022/09/15 10:45:47;;;;;;;;;;;;;;;7.88;100.00;98890.06;6247229;22;19916;-87
2022/09/15 10:48:15;;;;;;;;;;;;;;;7.84;100.00;98887.63;6247205;22;19961;-87
2022/09/15 10:51:06;;;;;;;;;;;;;;;7.88;100.00;98887.41;6246769;22;20081;-87
2022/09/15 10:53:34;;;;;;;;;;;;;;;7.86;100.00;98883.13;6298819;22;20215;-86
2022/09/15 10:56:06;;;;;;;;;;;;;;;7.87;100.00;98879.59;6303157;22;19918;-87
2022/09/15 10:58:39;;;;;;;;;;;;;;;7.84;100.00;98882.34;6304680;22;20002;-86
2022/09/15 11:01:19;;;;;;;;;;;;;;;7.93;100.00;98887.19;6305116;22;20003;-87
2022/09/15 11:03:48;;;;;;;;;;;;;;;7.85;100.00;98884.91;6304862;22;19933;-88
2022/09/15 11:06:22;;;;;;;;;;;;;;;7.85;100.00;98884.03;6305396;22;19915;-87
2022/09/15 11:08:48;;;;;;;;;;;;;;;7.84;100.00;98887.63;6307313;22;20345;-87
2022/09/15 11:11:13;;;;;;;;;;;;;;;7.80;100.00;98893.03;6305326;22;19964;-87
2022/09/15 11:13:49;;;;;;;;;;;;;;;7.83;100.00;98886.75;6306928;22;19914;-87
2022/09/15 11:16:33;;;;;;;;;;;;;;;7.81;100.00;98893.88;6307454;22;19918;-87
2022/09/15 11:19:26;;;;;;;;;;;;;;;7.86;100.00;98896.31;6306802;22;19911;-88
2022/09/15 11:21:56;;;;;;;;;;;;;;;7.86;100.00;98896.31;6299800;22;19911;-86
2022/09/15 11:24:25;;;;;;;;;;;;;;;7.82;100.00;98896.47;6306921;22;19938;-87
2022/09/15 11:26:56;;;;;;;;;;;;;;;7.80;100.00;98900.97;6305261;22;19922;-86
2022/09/15 11:29:25;;;;;;;;;;;;;;;7.80;100.00;98894.81;6307170;22;20306;-86
2022/09/15 11:31:54;;;;;;;;;;;;;;;7.82;100.00;98891.19;6308688;22;19915;-86
2022/09/15 11:34:25;;;;;;;;;;;;;;;7.88;100.00;98902.38;6307101;22;20375;-87
2022/09/15 11:36:54;;;;;;;;;;;;;;;7.99;100.00;98910.66;6308193;22;19976;-86
2022/09/15 11:39:24;;;;;;;;;;;;;;;7.89;100.00;98914.66;6308189;22;20346;-87
2022/09/15 11:41:57;;;;;;;;;;;;;;;7.86;100.00;98918.25;6305037;22;19921;-87
2022/09/15 11:44:31;;;;;;;;;;;;;;;7.84;100.00;98914.84;6306884;22;19915;-87
2022/09/15 11:47:06;;;;;;;;;;;;;;;7.78;100.00;98925.69;6306593;22;19918;-87
2022/09/15 11:49:31;;;;;;;;;;;;;;;7.72;100.00;98916.28;6308131;22;19946;-87
2022/09/15 11:52:12;;;;;;;;;;;;;;;7.74;100.00;98922.31;6308501;22;19911;-85
2022/09/15 11:54:48;;;;;;;;;;;;;;;7.71;100.00;98924.25;6306701;22;19911;-86
2022/09/15 11:57:20;;;;;;;;;;;;;;;7.75;100.00;98920.53;6307770;22;19911;-86
2022/09/15 11:59:45;;;;;;;;;;;;;;;7.74;100.00;98909.13;6308624;22;19962;-86
2022/09/15 12:02:29;;;;;;;;;;;;;;;7.68;100.00;98913.84;6308491;22;19920;-86
2022/09/15 12:05:03;;;;;;;;;;;;;;;7.73;100.00;98914.47;6306343;22;19964;-87
2022/09/15 12:07:31;;;;;;;;;;;;;;;7.73;100.00;98925.88;6307958;22;19964;-86
2022/09/15 12:10:03;;;;;;;;;;;;;;;7.71;100.00;98926.88;6306138;22;20354;-85
2022/09/15 12:12:28;;;;;;;;;;;;;;;7.73;100.00;98928.50;6306462;22;19911;-86
2022/09/15 12:14:54;;;;;;;;;;;;;;;7.70;100.00;98926.00;6308368;22;19918;-87
2022/09/15 12:17:25;;;;;;;;;;;;;;;7.73;100.00;98922.41;6307997;22;19992;-86
2022/09/15 12:19:59;;;;;;;;;;;;;;;7.68;100.00;98925.22;6306023;22;19953;-89
2022/09/15 12:22:30;;;;;;;;;;;;;;;7.66;100.00;98920.94;6306580;22;20238;-88
2022/09/15 12:25:14;;;;;;;;;;;;;;;7.67;100.00;98927.94;6304705;22;19954;-87
2022/09/15 12:27:39;;;;;;;;;;;;;;;7.67;100.00;98918.25;6307789;22;19911;-86
2022/09/15 12:30:05;;;;;;;;;;;;;;;7.70;100.00;98919.91;6307848;22;19968;-87
2022/09/15 12:32:33;;;;;;;;;;;;;;;7.67;100.00;98912.97;6306278;22;19911;-86
2022/09/15 12:34:59;;;;;;;;;;;;;;;7.70;100.00;98918.09;6306100;22;19918;-86
2022/09/15 12:37:28;;;;;;;;;;;;;;;7.68;100.00;98919.97;6307835;22;19915;-86
2022/09/15 12:39:53;;;;;;;;;;;;;;;7.66;100.00;98913.91;6307022;22;19980;-86
2022/09/15 12:42:23;;;;;;;;;;;;;;;7.65;100.00;98912.19;6307483;22;19915;-86
2022/09/15 12:45:01;;;;;;;;;;;;;;;7.68;100.00;98921.75;6307612;22;19953;-86
2022/09/15 12:47:27;;;;;;;;;;;;;;;7.76;100.00;98920.47;6307566;22;19949;-87
2022/09/15 12:49:53;;;;;;;;;;;;;;;7.75;100.00;98920.53;6307618;22;19914;-85
2022/09/15 12:52:20;;;;;;;;;;;;;;;7.72;100.00;98920.66;6307639;22;19922;-86
2022/09/15 12:54:51;;;;;;;;;;;;;;;7.74;100.00;98922.31;6305837;22;19937;-87
2022/09/15 12:57:34;;;;;;;;;;;;;;;7.72;100.00;98918.91;6307378;22;19991;-90
2022/09/15 13:00:26;;;;;;;;;;;;;;;7.66;100.00;98916.53;6307291;22;19915;-87
2022/09/15 13:02:51;;;;;;;;;;;;;;;7.70;100.00;98918.09;6307376;22;20232;-87
2022/09/15 13:05:35;;;;;;;;;;;;;;;7.67;100.00;98926.16;6307846;22;19919;-87
2022/09/15 13:08:00;;;;;;;;;;;;;;;7.67;100.00;98926.16;6307295;22;19915;-87
2022/09/15 13:10:30;;;;;;;;;;;;;;;7.72;100.00;98925.94;6304202;22;20331;-87
2022/09/15 13:13:13;;;;;;;;;;;;;;;7.80;100.00;98929.97;6307413;22;19985;-86
2022/09/15 13:15:43;;;;;;;;;;;;;;;7.69;100.00;98932.22;6307310;22;19941;-86
2022/09/15 13:18:11;;;;;;;;;;;;;;;7.71;100.00;98935.66;6305624;22;19911;-86
2022/09/15 13:20:39;;;;;;;;;;;;;;;7.71;100.00;98935.66;6306230;22;19915;-86
2022/09/15 13:23:07;;;;;;;;;;;;;;;7.72;100.00;98936.50;6305556;22;19911;-86
2022/09/15 13:25:33;;;;;;;;;;;;;;;7.68;100.00;98933.16;6305889;22;20318;-90
2022/09/15 13:28:00;;;;;;;;;;;;;;;7.71;100.00;98935.66;6305644;22;19921;-90
2022/09/15 13:30:44;;;;;;;;;;;;;;;7.71;100.00;98933.00;6307192;22;19918;-94
2022/09/15 13:33:27;;;;;;;;;;;;;;;7.69;100.00;98945.41;6307055;22;19915;-89
2022/09/15 13:35:52;;;;;;;;;;;;;;;7.66;100.00;98942.91;6304838;22;19926;-87
2022/09/15 13:38:19;;;;;;;;;;;;;;;7.61;100.00;98944.88;6305989;22;19912;-87
2022/09/15 13:40:57;;;;;;;;;;;;;;;7.70;100.00;98944.47;6305622;22;20338;-87
2022/09/15 13:43:31;;;;;;;;;;;;;;;7.65;100.00;98941.19;6307080;22;19915;-87
2022/09/15 13:46:01;;;;;;;;;;;;;;;7.62;100.00;98946.59;6305775;22;19919;-87
2022/09/15 13:49:03;;;;;;;;;;;;;;;7.63;100.00;98935.97;6305433;22;19915;-87
2022/09/15 13:51:29;;;;;;;;;;;;;;;7.60;100.00;98943.19;6157319;23;19998;-85
2022/09/15 13:54:02;;;;;;;;;;;;;;;7.63;100.00;98937.78;6282094;22;19910;-88
2022/09/15 13:56:28;;;;;;;;;;;;;;;7.60;100.00;98944.03;6305355;22;19954;-87
2022/09/15 13:59:02;;;;;;;;;;;;;;;7.57;100.00;98933.63;6306838;22;19969;-88
2022/09/15 14:01:28;;;;;;;;;;;;;;;7.57;100.00;98938.03;6307062;22;20309;-88
2022/09/15 14:03:57;;;;;;;;;;;;;;;7.61;100.00;98939.59;6279453;22;19918;-85
2022/09/15 14:06:29;;;;;;;;;;;;;;;7.57;100.00;98933.63;6305704;22;19922;-87
2022/09/15 14:08:57;;;;;;;;;;;;;;;7.59;100.00;98936.19;6306920;22;19911;-86
2022/09/15 14:11:25;;;;;;;;;;;;;;;7.56;100.00;98931.03;6303669;22;19921;-88
2022/09/15 14:13:51;;;;;;;;;;;;;;;7.59;100.00;98936.19;6305521;22;20315;-88
2022/09/15 14:16:27;;;;;;;;;;;;;;;7.56;100.00;98931.03;6305217;22;19915;-85
2022/09/15 14:18:54;;;;;;;;;;;;;;;7.56;100.00;98931.03;6305004;22;19972;-88
2022/09/15 14:21:20;;;;;;;;;;;;;;;7.58;100.00;98937.13;6305131;22;19911;-86
2022/09/15 14:23:46;;;;;;;;;;;;;;;7.57;100.00;98935.41;6305515;22;20341;-85
2022/09/15 14:26:16;;;;;;;;;;;;;;;7.61;100.00;98939.59;6303539;22;19911;-86
2022/09/15 14:28:48;;;;;;;;;;;;;;;7.59;100.00;98929.13;6305557;22;19915;-85
2022/09/15 14:31:14;;;;;;;;;;;;;;;7.55;100.00;98935.47;6305102;22;19994;-89
2022/09/15 14:33:39;;;;;;;;;;;;;;;7.54;100.00;98925.00;6305101;22;19984;-87
2022/09/15 14:36:12;;;;;;;;;;;;;;;7.53;100.00;98932.06;6304854;22;19910;-88
2022/09/15 14:38:37;;;;;;;;;;;;;;;7.54;100.00;98922.34;6298052;22;19910;-87
2022/09/15 14:41:04;;;;;;;;;;;;;;;7.56;100.00;98928.41;6304576;22;19972;-88
2022/09/15 14:43:31;;;;;;;;;;;;;;;7.53;100.00;98926.78;6304946;22;19911;-86
2022/09/15 14:46:08;;;;;;;;;;;;;;;7.53;100.00;98931.19;6305113;22;19964;-88
2022/09/15 14:48:33;;;;;;;;;;;;;;;7.52;100.00;98935.59;6304922;22;19911;-88
2022/09/15 14:51:00;;;;;;;;;;;;;;;7.52;100.00;98927.69;6306039;22;19978;-85
2022/09/15 14:53:27;;;;;;;;;;;;;;;7.51;100.00;98933.03;6304681;22;20005;-88
2022/09/15 14:56:12;;;;;;;;;;;;;;;7.51;100.00;98927.75;6303833;22;19911;-86
2022/09/15 14:58:42;;;;;;;;;;;;;;;7.52;100.00;98924.22;6303322;22;19994;-85
2022/09/15 15:01:12;;;;;;;;;;;;;;;7.50;100.00;98928.69;6304599;22;20353;-87
2022/09/15 15:03:43;;;;;;;;;;;;;;;7.48;100.00;98927.88;6305325;22;19910;-88
2022/09/15 15:06:14;;;;;;;;;;;;;;;7.50;100.00;98932.19;6304738;22;19924;-87
2022/09/15 15:08:43;;;;;;;;;;;;;;;7.52;100.00;98932.13;6303671;22;20336;-88
2022/09/15 15:11:11;;;;;;;;;;;;;;;7.55;100.00;98935.47;6303729;22;19915;-85
2022/09/15 15:13:39;;;;;;;;;;;;;;;7.52;100.00;98938.25;6304887;22;19922;-87
2022/09/15 15:16:12;;;;;;;;;;;;;;;7.54;100.00;98935.53;6306496;22;19921;-85
2022/09/15 15:18:39;;;;;;;;;;;;;;;7.50;100.00;98932.19;6303873;22;19921;-85
2022/09/15 15:21:06;;;;;;;;;;;;;;;7.57;100.00;98932.75;6303403;22;19910;-86
2022/09/15 15:23:31;;;;;;;;;;;;;;;8.82;100.00;98930.50;6306028;22;19911;-86
2022/09/15 15:26:15;;;;;;;;;;;;;;;7.82;100.00;98932.53;6303092;22;19926;-88
2022/09/15 15:28:40;;;;;;;;;;;;;;;7.64;100.00;98923.66;6305882;22;19998;-87
2022/09/15 15:31:17;;;;;;;;;;;;;;;7.60;100.00;98927.34;6305300;22;19943;-89
2022/09/15 15:33:54;;;;;;;;;;;;;;;7.54;100.00;98935.53;6304909;22;19911;-85
2022/09/15 15:36:21;;;;;;;;;;;;;;;7.55;100.00;98943.38;6305067;22;19918;-86
2022/09/15 15:38:50;;;;;;;;;;;;;;;7.56;100.00;98937.19;6303389;22;20015;-85
2022/09/15 15:41:19;;;;;;;;;;;;;;;7.54;100.00;98933.75;6302157;22;19919;-88
2022/09/15 15:43:56;;;;;;;;;;;;;;;7.54;100.00;98943.44;6305490;22;19915;-86
2022/09/15 15:46:41;;;;;;;;;;;;;;;7.48;100.00;98946.34;6304082;22;19911;-85
2022/09/15 15:49:08;;;;;;;;;;;;;;;7.51;100.00;98948.84;6305995;22;19984;-86
2022/09/15 15:51:34;;;;;;;;;;;;;;;7.48;100.00;98946.34;6305824;22;19918;-86
2022/09/15 15:53:59;;;;;;;;;;;;;;;7.52;100.00;98945.31;6307298;22;20242;-87
2022/09/15 15:56:24;;;;;;;;;;;;;;;7.52;100.00;98945.31;6304810;22;19960;-88
2022/09/15 15:58:50;;;;;;;;;;;;;;;7.48;100.00;98954.25;6307967;22;19915;-89
2022/09/15 16:01:15;;;;;;;;;;;;;;;7.46;100.00;98947.25;6306481;22;19969;-86
2022/09/15 16:03:40;;;;;;;;;;;;;;;7.49;100.00;98942.78;6305320;22;20281;-86
2022/09/15 16:06:08;;;;;;;;;;;;;;;7.48;100.00;98948.97;6306541;22;19915;-86
2022/09/15 16:08:39;;;;;;;;;;;;;;;7.47;100.00;98942.88;6307568;22;19915;-86
2022/09/15 16:11:07;;;;;;;;;;;;;;;7.50;100.00;98947.13;6305485;22;19911;-86
2022/09/15 16:13:33;;;;;;;;;;;;;;;7.53;100.00;98941.72;6308127;22;19911;-86
2022/09/15 16:15:59;;;;;;;;;;;;;;;7.51;100.00;98948.84;6305555;22;20041;-86
2022/09/15 16:18:25;;;;;;;;;;;;;;;7.47;100.00;98942.88;6306188;22;19915;-87
2022/09/15 16:20:51;;;;;;;;;;;;;;;7.50;100.00;98949.75;6307798;22;20005;-86
2022/09/15 16:23:17;;;;;;;;;;;;;;;7.54;100.00;98948.72;6305219;22;19950;-85
2022/09/15 16:25:55;;;;;;;;;;;;;;;7.50;100.00;98953.28;6303767;22;19969;-86
2022/09/15 16:28:20;;;;;;;;;;;;;;;7.51;100.00;98943.56;6304946;22;19914;-86
2022/09/15 16:30:46;;;;;;;;;;;;;;;7.49;100.00;98942.78;6304686;22;20010;-86
2022/09/15 16:33:15;;;;;;;;;;;;;;;7.52;100.00;98945.31;6305141;22;19918;-86
2022/09/15 16:35:50;;;;;;;;;;;;;;;7.49;100.00;98945.44;6304517;22;19915;-87
2022/09/15 16:38:18;;;;;;;;;;;;;;;7.51;100.00;98948.84;6304620;22;20323;-87
2022/09/15 16:40:43;;;;;;;;;;;;;;;7.52;100.00;98950.56;6299405;22;19993;-86
2022/09/15 16:43:11;;;;;;;;;;;;;;;7.50;100.00;98950.63;6305071;22;20334;-86
2022/09/15 16:45:37;;;;;;;;;;;;;;;7.50;100.00;98952.41;6305277;22;20394;-86
2022/09/15 16:48:02;;;;;;;;;;;;;;;7.51;100.00;98948.84;6307363;22;19993;-87
2022/09/15 16:50:28;;;;;;;;;;;;;;;7.46;100.00;98949.88;6305816;22;19942;-87
2022/09/15 16:52:54;;;;;;;;;;;;;;;7.46;100.00;98952.53;6306569;22;19922;-87
2022/09/15 16:55:19;;;;;;;;;;;;;;;7.45;100.00;98966.66;6298621;22;19911;-86
2022/09/15 16:57:45;;;;;;;;;;;;;;;7.46;100.00;98951.69;6307829;22;19911;-87
2022/09/15 17:00:10;;;;;;;;;;;;;;;7.45;100.00;98955.22;6306178;22;19930;-85
2022/09/15 17:02:36;;;;;;;;;;;;;;;7.50;100.00;98957.66;6305274;22;19911;-86
2022/09/15 17:05:01;;;;;;;;;;;;;;;7.46;100.00;98957.81;6304661;22;19906;-86
2022/09/15 17:07:26;;;;;;;;;;;;;;;7.52;100.00;98955.84;6305976;22;20242;-86
2022/09/15 17:09:54;;;;;;;;;;;;;;;7.51;100.00;98959.41;6305046;22;19910;-91
2022/09/15 17:12:20;;;;;;;;;;;;;;;7.50;100.00;98963.81;6304477;22;19945;-87
2022/09/15 17:14:45;;;;;;;;;;;;;;;7.51;100.00;98967.31;6305961;22;20273;-87
2022/09/15 17:17:23;;;;;;;;;;;;;;;7.49;100.00;98963.88;6306098;22;19906;-87
2022/09/15 17:19:48;;;;;;;;;;;;;;;7.55;100.00;98955.72;6304973;22;19937;-87
2022/09/15 17:22:14;;;;;;;;;;;;;;;7.54;100.00;98967.16;6306960;22;20373;-87
2022/09/15 17:24:39;;;;;;;;;;;;;;;7.52;100.00;98958.47;6304806;22;19972;-86
2022/09/15 17:27:04;;;;;;;;;;;;;;;7.53;100.00;98968.09;6305396;22;19950;-86
2022/09/15 17:29:30;;;;;;;;;;;;;;;10.98;100.00;98961.41;6307045;22;19918;-87
2022/09/15 17:31:55;;;;;;;;;;;;;;;9.56;100.00;98961.13;6305377;22;19965;-86
2022/09/15 17:34:20;;;;;;;;;;;;;;;8.33;100.00;98964.50;6305121;22;19915;-86
2022/09/15 17:36:45;;;;;;;;;;;;;;;8.00;100.00;98963.34;6305487;22;20259;-86
2022/09/15 17:39:11;;;;;;;;;;;;;;;7.87;100.00;98961.34;6304133;22;19910;-86
2022/09/15 17:41:37;;;;;;;;;;;;;;;7.83;100.00;98957.97;6304273;22;19922;-89
2022/09/15 17:44:07;;;;;;;;;;;;;;;7.80;100.00;98956.34;6305487;22;19942;-86
2022/09/15 17:46:32;;;;;;;;;;;;;;;7.73;100.00;98960.16;6305115;22;19922;-87
2022/09/15 17:48:57;;;;;;;;;;;;;;;7.71;100.00;98956.75;6305404;22;19915;-88
2022/09/15 17:51:23;;;;;;;;;;;;;;;7.69;100.00;98955.97;6295682;22;19946;-87
2022/09/15 17:53:49;;;;;;;;;;;;;;;7.63;100.00;98959.72;6306970;22;19915;-87
2022/09/15 17:56:14;;;;;;;;;;;;;;;7.63;100.00;98961.50;6303008;22;19918;-87
2022/09/15 17:58:40;;;;;;;;;;;;;;;7.63;100.00;98969.41;6304801;22;19957;-87
2022/09/15 18:01:05;;;;;;;;;;;;;;;7.62;100.00;98963.25;6305107;22;20314;-88
2022/09/15 18:03:33;;;;;;;;;;;;;;;7.57;100.00;98965.25;6306308;22;19957;-87
2022/09/15 18:05:59;;;;;;;;;;;;;;;7.59;100.00;98970.47;6304051;22;19915;-89
2022/09/15 18:08:25;;;;;;;;;;;;;;;7.56;100.00;98973.22;6303208;22;19941;-88
2022/09/15 18:10:50;;;;;;;;;;;;;;;7.59;100.00;98967.81;6302793;22;19918;-87
2022/09/15 18:13:17;;;;;;;;;;;;;;;7.58;100.00;98971.41;6304848;22;19923;-87
2022/09/15 18:15:43;;;;;;;;;;;;;;;7.58;100.00;98984.59;6304004;22;20250;-88
2022/09/15 18:18:11;;;;;;;;;;;;;;;7.62;100.00;98978.22;6303365;22;19954;-89
2022/09/15 18:20:37;;;;;;;;;;;;;;;7.59;100.00;98988.91;6296613;22;20353;-91
2022/09/15 18:23:03;;;;;;;;;;;;;;;7.60;100.00;98995.91;6304250;22;19969;-89
2022/09/15 18:25:30;;;;;;;;;;;;;;;7.56;100.00;98989.91;6304063;22;20227;-89
2022/09/15 18:27:56;;;;;;;;;;;;;;;7.59;100.00;98997.66;6304273;22;19911;-88
2022/09/15 18:30:23;;;;;;;;;;;;;;;7.56;100.00;98994.31;6304652;22;19915;-88
2022/09/15 18:32:49;;;;;;;;;;;;;;;7.54;100.00;99002.28;6303206;22;20168;-88
2022/09/15 18:35:16;;;;;;;;;;;;;;;7.55;100.00;98997.91;6305306;22;19954;-87
2022/09/15 18:37:42;;;;;;;;;;;;;;;7.53;100.00;99005.00;6303940;22;19914;-87
2022/09/15 18:40:08;;;;;;;;;;;;;;;7.52;100.00;99008.56;6302568;22;19994;-89
2022/09/15 18:42:37;;;;;;;;;;;;;;;7.52;100.00;99012.06;6303980;22;19984;-87
2022/09/15 18:45:04;;;;;;;;;;;;;;;7.52;100.00;99013.84;6303950;22;19914;-90
2022/09/15 18:47:29;;;;;;;;;;;;;;;7.51;100.00;99020.88;6305505;22;19934;-88
2022/09/15 18:49:55;;;;;;;;;;;;;;;7.51;100.00;99020.03;6304630;22;19993;-88
2022/09/15 18:52:20;;;;;;;;;;;;;;;7.51;100.00;99017.38;6307014;22;19997;-89
2022/09/15 18:54:45;;;;;;;;;;;;;;;7.47;100.00;99016.66;6304935;22;19915;-88
2022/09/15 18:57:10;;;;;;;;;;;;;;;7.46;100.00;99021.06;6303516;22;19982;-92
2022/09/15 18:59:36;;;;;;;;;;;;;;;7.47;100.00;99035.13;6305490;22;19973;-89
2022/09/15 19:02:01;;;;;;;;;;;;;;;7.44;100.00;99022.91;6295026;22;19911;-87
2022/09/15 19:04:29;;;;;;;;;;;;;;;7.44;100.00;99030.81;6304397;22;19919;-88
2022/09/15 19:06:54;;;;;;;;;;;;;;;7.40;100.00;99028.38;6304712;22;19954;-87
2022/09/15 19:09:19;;;;;;;;;;;;;;;7.43;100.00;99031.72;6304316;22;20250;-87
2022/09/15 19:11:45;;;;;;;;;;;;;;;7.40;100.00;99031.88;6302907;22;20346;-86
2022/09/15 19:14:10;;;;;;;;;;;;;;;7.42;100.00;99026.56;6306804;22;19915;-87
2022/09/15 19:16:38;;;;;;;;;;;;;;;7.46;100.00;99038.66;6304357;22;19955;-87
2022/09/15 19:19:03;;;;;;;;;;;;;;;7.37;100.00;99039.94;6305264;22;20006;-89
2022/09/15 19:21:29;;;;;;;;;;;;;;;7.40;100.00;99042.44;6302029;22;19951;-88
2022/09/15 19:23:54;;;;;;;;;;;;;;;7.46;100.00;99039.50;6302984;22;20318;-88
2022/09/15 19:26:20;;;;;;;;;;;;;;;7.42;100.00;99037.94;6302812;22;19922;-88
2022/09/15 19:28:49;;;;;;;;;;;;;;;7.43;100.00;99037.00;6307846;22;19914;-88
2022/09/15 19:31:14;;;;;;;;;;;;;;;7.39;100.00;99039.88;6307956;22;19911;-88
2022/09/15 19:33:40;;;;;;;;;;;;;;;7.41;100.00;99033.59;6308318;22;19955;-88
2022/09/15 19:36:06;;;;;;;;;;;;;;;7.42;100.00;99030.03;6305949;22;20413;-87
2022/09/15 19:38:32;;;;;;;;;;;;;;;7.43;100.00;99030.88;6307627;22;19910;-88
2022/09/15 19:41:04;;;;;;;;;;;;;;;7.44;100.00;99030.81;6303880;22;19915;-87
2022/09/15 19:43:30;;;;;;;;;;;;;;;7.40;100.00;99042.44;6306551;22;19919;-88
2022/09/15 19:45:55;;;;;;;;;;;;;;;7.40;100.00;99038.91;6305596;22;20286;-88
2022/09/15 19:48:20;;;;;;;;;;;;;;;7.38;100.00;99038.97;6307252;22;19911;-88
2022/09/15 19:50:46;;;;;;;;;;;;;;;7.39;100.00;99042.50;6304759;22;19915;-88
2022/09/15 19:53:11;;;;;;;;;;;;;;;7.37;100.00;99042.56;6305553;22;20001;-88
2022/09/15 19:55:36;;;;;;;;;;;;;;;7.34;100.00;99052.34;6306711;22;19919;-88
2022/09/15 19:58:16;;;;;;;;;;;;;;;7.36;100.00;99046.09;6306262;22;19960;-87
2022/09/15 20:00:42;;;;;;;;;;;;;;;7.33;100.00;99048.88;6306574;22;19922;-88
2022/09/15 20:03:07;;;;;;;;;;;;;;;7.34;100.00;99052.34;6305071;22;20242;-88
2022/09/15 20:05:32;;;;;;;;;;;;;;;7.31;100.00;99058.63;6304484;22;19915;-90
2022/09/15 20:07:59;;;;;;;;;;;;;;;7.30;100.00;99056.03;6306474;22;20425;-87
2022/09/15 20:10:24;;;;;;;;;;;;;;;7.32;100.00;99070.84;6305867;22;19918;-87
2022/09/15 20:12:50;;;;;;;;;;;;;;;7.30;100.00;99062.16;6307666;22;20254;-88
2022/09/15 20:15:15;;;;;;;;;;;;;;;7.31;100.00;99063.91;6307148;22;19910;-88
2022/09/15 20:17:41;;;;;;;;;;;;;;;7.33;100.00;99066.47;6307072;22;19930;-88
2022/09/15 20:20:06;;;;;;;;;;;;;;;7.31;100.00;99060.38;6305340;22;19971;-87
2022/09/15 20:22:32;;;;;;;;;;;;;;;7.26;100.00;99061.44;6306322;22;19984;-89
2022/09/15 20:24:57;;;;;;;;;;;;;;;7.31;100.00;99058.63;6304992;22;19911;-87
2022/09/15 20:27:22;;;;;;;;;;;;;;;7.29;100.00;99055.16;6306858;22;20341;-87
2022/09/15 20:29:48;;;;;;;;;;;;;;;7.27;100.00;99047.34;6307422;22;19911;-88
2022/09/15 20:32:13;;;;;;;;;;;;;;;7.33;100.00;99067.31;6307097;22;19997;-87
2022/09/15 20:34:38;;;;;;;;;;;;;;;7.31;100.00;99063.91;6307502;22;19911;-87
2022/09/15 20:37:03;;;;;;;;;;;;;;;7.34;100.00;99061.13;6307335;22;19911;-88
2022/09/15 20:39:29;;;;;;;;;;;;;;;7.31;100.00;99063.00;6304385;22;19915;-87